Aviation Digital Data Service (ADDS)

Output produced by METARs form (2048 UTC 25 September 2016)
found at http://www.aviationweather.gov/adds/metars/
 
KSFO 251726Z 2518/2624 VRB06KT P6SM SKC 
     FM252200 29015KT P6SM SKC 
     FM260300 29008KT P6SM SKC 
     FM260800 25004KT P6SM SKC 
     FM262200 30017KT P6SM SKC